sensor_id;sensor_type;location;lat;lon;timestamp;P1;durP1;ratioP1;P2;durP2;ratioP2
43048;SDS011;28673;44.412;11.918;2023-06-01T00:01:59;11.73;;;9.40;;
43048;SDS011;28673;44.412;11.918;2023-06-01T00:04:25;15.50;;;9.50;;
43048;SDS011;28673;44.412;11.918;2023-06-01T00:06:51;16.08;;;9.05;;
43048;SDS011;28673;44.412;11.918;2023-06-01T00:09:17;14.18;;;10.15;;
43048;SDS011;28673;44.412;11.918;2023-06-01T00:11:43;11.52;;;9.30;;
43048;SDS011;28673;44.412;11.918;2023-06-01T00:14:09;10.75;;;8.35;;
43048;SDS011;28673;44.412;11.918;2023-06-01T00:16:35;12.07;;;7.78;;
43048;SDS011;28673;44.412;11.918;2023-06-01T00:19:01;14.18;;;8.77;;
43048;SDS011;28673;44.412;11.918;2023-06-01T00:21:28;18.60;;;9.43;;
43048;SDS011;28673;44.412;11.918;2023-06-01T00:23:57;15.75;;;9.30;;
43048;SDS011;28673;44.412;11.918;2023-06-01T00:26:23;17.85;;;9.35;;
43048;SDS011;28673;44.412;11.918;2023-06-01T00:28:51;13.77;;;8.55;;
43048;SDS011;28673;44.412;11.918;2023-06-01T00:31:18;14.13;;;9.13;;
43048;SDS011;28673;44.412;11.918;2023-06-01T00:33:43;14.10;;;8.32;;
43048;SDS011;28673;44.412;11.918;2023-06-01T00:36:09;13.95;;;8.40;;
43048;SDS011;28673;44.412;11.918;2023-06-01T00:38:35;13.60;;;7.60;;
43048;SDS011;28673;44.412;11.918;2023-06-01T00:41:01;15.88;;;7.72;;
43048;SDS011;28673;44.412;11.918;2023-06-01T00:43:27;22.75;;;8.90;;
43048;SDS011;28673;44.412;11.918;2023-06-01T00:45:53;9.90;;;7.22;;
43048;SDS011;28673;44.412;11.918;2023-06-01T00:48:19;14.82;;;9.45;;
43048;SDS011;28673;44.412;11.918;2023-06-01T00:50:46;17.33;;;7.45;;
43048;SDS011;28673;44.412;11.918;2023-06-01T00:53:16;11.73;;;7.65;;
43048;SDS011;28673;44.412;11.918;2023-06-01T00:55:45;13.07;;;7.43;;
43048;SDS011;28673;44.412;11.918;2023-06-01T00:58:12;13.43;;;7.25;;
43048;SDS011;28673;44.412;11.918;2023-06-01T01:00:38;15.13;;;7.57;;
43048;SDS011;28673;44.412;11.918;2023-06-01T01:03:05;13.07;;;7.82;;
43048;SDS011;28673;44.412;11.918;2023-06-01T01:05:35;12.13;;;7.35;;
43048;SDS011;28673;44.412;11.918;2023-06-01T01:10:59;17.63;;;6.67;;
43048;SDS011;28673;44.412;11.918;2023-06-01T01:30:36;12.20;;;7.50;;
43048;SDS011;28673;44.412;11.918;2023-06-01T01:33:04;10.95;;;8.48;;
43048;SDS011;28673;44.412;11.918;2023-06-01T01:35:32;11.90;;;8.00;;
43048;SDS011;28673;44.412;11.918;2023-06-01T01:37:58;10.57;;;7.97;;
43048;SDS011;28673;44.412;11.918;2023-06-01T01:40:24;11.27;;;7.85;;
43048;SDS011;28673;44.412;11.918;2023-06-01T01:42:50;9.20;;;7.00;;
43048;SDS011;28673;44.412;11.918;2023-06-01T01:45:17;13.75;;;9.18;;
43048;SDS011;28673;44.412;11.918;2023-06-01T01:50:20;15.40;;;8.40;;
43048;SDS011;28673;44.412;11.918;2023-06-01T01:52:50;14.85;;;8.07;;
43048;SDS011;28673;44.412;11.918;2023-06-01T01:55:18;11.93;;;7.60;;
43048;SDS011;28673;44.412;11.918;2023-06-01T01:57:52;13.95;;;7.97;;
43048;SDS011;28673;44.412;11.918;2023-06-01T02:00:20;13.48;;;7.38;;
43048;SDS011;28673;44.412;11.918;2023-06-01T02:02:47;13.13;;;8.40;;
43048;SDS011;28673;44.412;11.918;2023-06-01T02:05:15;12.73;;;8.15;;
43048;SDS011;28673;44.412;11.918;2023-06-01T02:07:41;18.42;;;10.40;;
43048;SDS011;28673;44.412;11.918;2023-06-01T02:10:06;18.70;;;8.70;;
43048;SDS011;28673;44.412;11.918;2023-06-01T02:12:33;15.00;;;9.15;;
43048;SDS011;28673;44.412;11.918;2023-06-01T02:14:59;16.63;;;10.02;;
43048;SDS011;28673;44.412;11.918;2023-06-01T02:17:24;11.23;;;8.60;;
43048;SDS011;28673;44.412;11.918;2023-06-01T02:19:52;11.82;;;8.55;;
43048;SDS011;28673;44.412;11.918;2023-06-01T02:22:18;14.13;;;9.52;;
43048;SDS011;28673;44.412;11.918;2023-06-01T02:24:44;10.80;;;9.02;;
43048;SDS011;28673;44.412;11.918;2023-06-01T02:27:10;13.77;;;9.85;;
43048;SDS011;28673;44.412;11.918;2023-06-01T02:29:36;14.73;;;8.82;;
43048;SDS011;28673;44.412;11.918;2023-06-01T02:32:02;12.27;;;9.23;;
43048;SDS011;28673;44.412;11.918;2023-06-01T02:34:28;12.80;;;9.25;;
43048;SDS011;28673;44.412;11.918;2023-06-01T02:36:54;12.82;;;9.45;;
43048;SDS011;28673;44.412;11.918;2023-06-01T02:39:22;14.43;;;9.38;;
43048;SDS011;28673;44.412;11.918;2023-06-01T02:41:49;25.48;;;10.45;;
43048;SDS011;28673;44.412;11.918;2023-06-01T02:44:15;15.57;;;10.00;;
43048;SDS011;28673;44.412;11.918;2023-06-01T02:46:41;13.32;;;9.82;;
43048;SDS011;28673;44.412;11.918;2023-06-01T02:49:07;19.98;;;11.55;;
43048;SDS011;28673;44.412;11.918;2023-06-01T02:51:33;19.92;;;11.07;;
43048;SDS011;28673;44.412;11.918;2023-06-01T02:54:17;14.75;;;10.35;;
43048;SDS011;28673;44.412;11.918;2023-06-01T02:56:43;15.20;;;10.50;;
43048;SDS011;28673;44.412;11.918;2023-06-01T02:59:21;17.27;;;11.02;;
43048;SDS011;28673;44.412;11.918;2023-06-01T03:01:53;21.58;;;11.23;;
43048;SDS011;28673;44.412;11.918;2023-06-01T03:04:19;24.92;;;13.05;;
43048;SDS011;28673;44.412;11.918;2023-06-01T03:06:46;25.58;;;14.00;;
43048;SDS011;28673;44.412;11.918;2023-06-01T03:09:34;20.17;;;11.73;;
43048;SDS011;28673;44.412;11.918;2023-06-01T03:12:08;17.13;;;11.80;;
43048;SDS011;28673;44.412;11.918;2023-06-01T03:14:35;20.70;;;13.35;;
43048;SDS011;28673;44.412;11.918;2023-06-01T03:17:01;20.70;;;11.50;;
43048;SDS011;28673;44.412;11.918;2023-06-01T03:19:27;24.27;;;12.18;;
43048;SDS011;28673;44.412;11.918;2023-06-01T03:21:55;16.67;;;12.05;;
43048;SDS011;28673;44.412;11.918;2023-06-01T03:24:22;20.75;;;12.27;;
43048;SDS011;28673;44.412;11.918;2023-06-01T03:26:54;20.45;;;13.07;;
43048;SDS011;28673;44.412;11.918;2023-06-01T03:29:22;15.38;;;12.10;;
43048;SDS011;28673;44.412;11.918;2023-06-01T03:31:48;23.05;;;12.95;;
43048;SDS011;28673;44.412;11.918;2023-06-01T03:34:18;20.92;;;12.75;;
43048;SDS011;28673;44.412;11.918;2023-06-01T03:36:45;16.90;;;11.48;;
43048;SDS011;28673;44.412;11.918;2023-06-01T03:39:14;19.33;;;10.82;;
43048;SDS011;28673;44.412;11.918;2023-06-01T03:41:42;15.38;;;11.45;;
43048;SDS011;28673;44.412;11.918;2023-06-01T03:44:09;17.90;;;11.60;;
43048;SDS011;28673;44.412;11.918;2023-06-01T03:46:35;17.85;;;12.90;;
43048;SDS011;28673;44.412;11.918;2023-06-01T03:49:01;18.20;;;12.30;;
43048;SDS011;28673;44.412;11.918;2023-06-01T03:51:27;19.65;;;11.60;;
43048;SDS011;28673;44.412;11.918;2023-06-01T03:53:53;18.23;;;11.60;;
43048;SDS011;28673;44.412;11.918;2023-06-01T03:56:19;16.70;;;11.63;;
43048;SDS011;28673;44.412;11.918;2023-06-01T03:58:46;20.35;;;12.25;;
43048;SDS011;28673;44.412;11.918;2023-06-01T04:01:14;17.73;;;12.52;;
43048;SDS011;28673;44.412;11.918;2023-06-01T04:03:46;16.17;;;10.85;;
43048;SDS011;28673;44.412;11.918;2023-06-01T04:06:14;27.02;;;12.65;;
43048;SDS011;28673;44.412;11.918;2023-06-01T04:08:45;22.15;;;12.05;;
43048;SDS011;28673;44.412;11.918;2023-06-01T04:11:15;17.88;;;11.88;;
43048;SDS011;28673;44.412;11.918;2023-06-01T04:13:42;20.50;;;13.45;;
43048;SDS011;28673;44.412;11.918;2023-06-01T04:16:12;15.98;;;11.48;;
43048;SDS011;28673;44.412;11.918;2023-06-01T04:18:39;15.15;;;11.90;;
43048;SDS011;28673;44.412;11.918;2023-06-01T04:21:09;17.42;;;11.02;;
43048;SDS011;28673;44.412;11.918;2023-06-01T04:23:36;30.65;;;13.60;;
43048;SDS011;28673;44.412;11.918;2023-06-01T04:26:03;26.60;;;11.80;;
43048;SDS011;28673;44.412;11.918;2023-06-01T04:28:31;13.95;;;10.15;;
43048;SDS011;28673;44.412;11.918;2023-06-01T04:30:57;17.67;;;11.77;;
43048;SDS011;28673;44.412;11.918;2023-06-01T04:33:24;20.08;;;11.50;;
43048;SDS011;28673;44.412;11.918;2023-06-01T04:35:51;21.17;;;11.55;;
43048;SDS011;28673;44.412;11.918;2023-06-01T04:38:22;18.75;;;10.35;;
43048;SDS011;28673;44.412;11.918;2023-06-01T04:40:50;20.38;;;11.23;;
43048;SDS011;28673;44.412;11.918;2023-06-01T04:43:19;18.15;;;11.88;;
43048;SDS011;28673;44.412;11.918;2023-06-01T04:45:45;15.95;;;10.07;;
43048;SDS011;28673;44.412;11.918;2023-06-01T04:48:12;14.93;;;8.85;;
43048;SDS011;28673;44.412;11.918;2023-06-01T04:50:55;22.13;;;10.48;;
43048;SDS011;28673;44.412;11.918;2023-06-01T04:53:22;16.88;;;8.30;;
43048;SDS011;28673;44.412;11.918;2023-06-01T04:55:48;13.00;;;8.82;;
43048;SDS011;28673;44.412;11.918;2023-06-01T04:58:15;14.85;;;8.13;;
43048;SDS011;28673;44.412;11.918;2023-06-01T05:00:41;14.80;;;8.40;;
43048;SDS011;28673;44.412;11.918;2023-06-01T05:03:07;16.55;;;8.38;;
43048;SDS011;28673;44.412;11.918;2023-06-01T05:05:33;14.00;;;8.32;;
43048;SDS011;28673;44.412;11.918;2023-06-01T05:07:59;19.17;;;7.30;;
43048;SDS011;28673;44.412;11.918;2023-06-01T05:10:26;14.57;;;8.13;;
43048;SDS011;28673;44.412;11.918;2023-06-01T05:12:52;14.20;;;7.97;;
43048;SDS011;28673;44.412;11.918;2023-06-01T05:15:18;13.50;;;8.27;;
43048;SDS011;28673;44.412;11.918;2023-06-01T05:17:45;16.65;;;7.07;;
43048;SDS011;28673;44.412;11.918;2023-06-01T05:20:14;9.23;;;6.15;;
43048;SDS011;28673;44.412;11.918;2023-06-01T05:22:43;9.60;;;6.88;;
43048;SDS011;28673;44.412;11.918;2023-06-01T05:25:09;14.00;;;7.57;;
43048;SDS011;28673;44.412;11.918;2023-06-01T05:27:36;20.05;;;7.25;;
43048;SDS011;28673;44.412;11.918;2023-06-01T05:30:03;11.23;;;7.50;;
43048;SDS011;28673;44.412;11.918;2023-06-01T05:32:30;12.73;;;7.40;;
43048;SDS011;28673;44.412;11.918;2023-06-01T05:35:03;14.85;;;7.43;;
43048;SDS011;28673;44.412;11.918;2023-06-01T05:37:31;10.50;;;7.43;;
43048;SDS011;28673;44.412;11.918;2023-06-01T05:39:57;13.30;;;7.68;;
43048;SDS011;28673;44.412;11.918;2023-06-01T05:42:22;11.93;;;7.80;;
43048;SDS011;28673;44.412;11.918;2023-06-01T05:44:49;17.48;;;8.10;;
43048;SDS011;28673;44.412;11.918;2023-06-01T05:47:15;14.13;;;7.25;;
43048;SDS011;28673;44.412;11.918;2023-06-01T05:49:41;12.82;;;7.20;;
43048;SDS011;28673;44.412;11.918;2023-06-01T05:52:08;10.77;;;7.30;;
43048;SDS011;28673;44.412;11.918;2023-06-01T05:54:35;17.48;;;7.60;;
43048;SDS011;28673;44.412;11.918;2023-06-01T05:57:01;14.52;;;7.47;;
43048;SDS011;28673;44.412;11.918;2023-06-01T05:59:27;14.05;;;7.75;;
43048;SDS011;28673;44.412;11.918;2023-06-01T06:01:53;14.48;;;8.52;;
43048;SDS011;28673;44.412;11.918;2023-06-01T06:04:19;14.48;;;8.73;;
43048;SDS011;28673;44.412;11.918;2023-06-01T06:06:45;15.15;;;7.63;;
43048;SDS011;28673;44.412;11.918;2023-06-01T06:09:11;10.68;;;9.10;;
43048;SDS011;28673;44.412;11.918;2023-06-01T06:11:39;16.05;;;9.25;;
43048;SDS011;28673;44.412;11.918;2023-06-01T06:14:05;14.48;;;8.63;;
43048;SDS011;28673;44.412;11.918;2023-06-01T06:16:31;12.98;;;8.25;;
43048;SDS011;28673;44.412;11.918;2023-06-01T06:18:57;16.40;;;8.35;;
43048;SDS011;28673;44.412;11.918;2023-06-01T06:21:23;16.30;;;9.77;;
43048;SDS011;28673;44.412;11.918;2023-06-01T06:23:49;12.85;;;8.50;;
43048;SDS011;28673;44.412;11.918;2023-06-01T06:26:15;22.88;;;8.80;;
43048;SDS011;28673;44.412;11.918;2023-06-01T06:28:40;13.45;;;9.20;;
43048;SDS011;28673;44.412;11.918;2023-06-01T06:31:06;18.50;;;9.55;;
43048;SDS011;28673;44.412;11.918;2023-06-01T06:33:32;12.25;;;9.38;;
43048;SDS011;28673;44.412;11.918;2023-06-01T06:35:58;14.25;;;9.15;;
43048;SDS011;28673;44.412;11.918;2023-06-01T06:38:23;17.42;;;9.85;;
43048;SDS011;28673;44.412;11.918;2023-06-01T06:40:49;18.20;;;10.85;;
43048;SDS011;28673;44.412;11.918;2023-06-01T06:43:16;11.50;;;9.25;;
43048;SDS011;28673;44.412;11.918;2023-06-01T06:45:43;12.40;;;9.98;;
43048;SDS011;28673;44.412;11.918;2023-06-01T06:48:08;16.08;;;9.23;;
43048;SDS011;28673;44.412;11.918;2023-06-01T06:50:34;17.42;;;10.27;;
43048;SDS011;28673;44.412;11.918;2023-06-01T06:53:02;17.63;;;9.93;;
43048;SDS011;28673;44.412;11.918;2023-06-01T06:55:29;13.40;;;9.80;;
43048;SDS011;28673;44.412;11.918;2023-06-01T06:57:54;12.68;;;8.80;;
43048;SDS011;28673;44.412;11.918;2023-06-01T07:00:20;14.80;;;8.85;;
43048;SDS011;28673;44.412;11.918;2023-06-01T07:02:47;13.90;;;8.80;;
43048;SDS011;28673;44.412;11.918;2023-06-01T07:05:13;16.50;;;8.93;;
43048;SDS011;28673;44.412;11.918;2023-06-01T07:07:40;13.18;;;8.93;;
43048;SDS011;28673;44.412;11.918;2023-06-01T07:10:06;11.52;;;7.95;;
43048;SDS011;28673;44.412;11.918;2023-06-01T07:12:32;12.15;;;7.95;;
43048;SDS011;28673;44.412;11.918;2023-06-01T07:14:59;14.85;;;7.72;;
43048;SDS011;28673;44.412;11.918;2023-06-01T07:17:25;13.82;;;7.15;;
43048;SDS011;28673;44.412;11.918;2023-06-01T07:19:51;14.68;;;8.25;;
43048;SDS011;28673;44.412;11.918;2023-06-01T07:22:17;11.02;;;7.68;;
43048;SDS011;28673;44.412;11.918;2023-06-01T07:24:43;9.98;;;7.85;;
43048;SDS011;28673;44.412;11.918;2023-06-01T07:27:10;8.95;;;6.63;;
43048;SDS011;28673;44.412;11.918;2023-06-01T07:29:36;11.60;;;6.97;;
43048;SDS011;28673;44.412;11.918;2023-06-01T07:32:02;10.40;;;6.00;;
43048;SDS011;28673;44.412;11.918;2023-06-01T07:34:28;10.70;;;6.30;;
43048;SDS011;28673;44.412;11.918;2023-06-01T07:36:54;7.45;;;5.55;;
43048;SDS011;28673;44.412;11.918;2023-06-01T07:39:24;11.20;;;5.32;;
43048;SDS011;28673;44.412;11.918;2023-06-01T07:41:50;8.82;;;5.90;;
43048;SDS011;28673;44.412;11.918;2023-06-01T07:44:19;7.93;;;5.85;;
43048;SDS011;28673;44.412;11.918;2023-06-01T07:46:45;7.57;;;5.15;;
43048;SDS011;28673;44.412;11.918;2023-06-01T07:49:12;8.98;;;5.97;;
43048;SDS011;28673;44.412;11.918;2023-06-01T07:51:42;13.75;;;6.70;;
43048;SDS011;28673;44.412;11.918;2023-06-01T07:54:08;16.13;;;8.25;;
43048;SDS011;28673;44.412;11.918;2023-06-01T07:56:34;9.00;;;6.05;;
43048;SDS011;28673;44.412;11.918;2023-06-01T07:59:00;11.30;;;6.57;;
43048;SDS011;28673;44.412;11.918;2023-06-01T08:01:27;11.35;;;6.43;;
43048;SDS011;28673;44.412;11.918;2023-06-01T08:03:53;14.32;;;6.43;;
43048;SDS011;28673;44.412;11.918;2023-06-01T08:06:21;9.88;;;7.30;;
43048;SDS011;28673;44.412;11.918;2023-06-01T08:08:48;8.27;;;5.80;;
43048;SDS011;28673;44.412;11.918;2023-06-01T08:11:14;10.18;;;6.05;;
43048;SDS011;28673;44.412;11.918;2023-06-01T08:13:41;10.40;;;6.95;;
43048;SDS011;28673;44.412;11.918;2023-06-01T08:16:11;11.07;;;6.43;;
43048;SDS011;28673;44.412;11.918;2023-06-01T08:18:38;8.35;;;5.50;;
43048;SDS011;28673;44.412;11.918;2023-06-01T08:21:04;9.32;;;5.50;;
43048;SDS011;28673;44.412;11.918;2023-06-01T08:23:30;9.98;;;6.90;;
43048;SDS011;28673;44.412;11.918;2023-06-01T08:25:56;12.63;;;6.90;;
43048;SDS011;28673;44.412;11.918;2023-06-01T08:28:22;12.43;;;5.30;;
43048;SDS011;28673;44.412;11.918;2023-06-01T08:30:48;13.05;;;5.65;;
43048;SDS011;28673;44.412;11.918;2023-06-01T08:33:13;13.85;;;6.45;;
43048;SDS011;28673;44.412;11.918;2023-06-01T08:35:40;9.88;;;5.32;;
43048;SDS011;28673;44.412;11.918;2023-06-01T08:38:06;10.65;;;6.03;;
43048;SDS011;28673;44.412;11.918;2023-06-01T08:40:32;19.33;;;6.88;;
43048;SDS011;28673;44.412;11.918;2023-06-01T08:45:35;6.97;;;4.90;;
43048;SDS011;28673;44.412;11.918;2023-06-01T08:48:03;6.07;;;4.30;;
43048;SDS011;28673;44.412;11.918;2023-06-01T08:52:59;5.68;;;4.57;;
43048;SDS011;28673;44.412;11.918;2023-06-01T08:55:27;6.88;;;4.60;;
43048;SDS011;28673;44.412;11.918;2023-06-01T08:57:54;14.35;;;5.00;;
43048;SDS011;28673;44.412;11.918;2023-06-01T09:00:20;10.60;;;6.05;;
43048;SDS011;28673;44.412;11.918;2023-06-01T09:02:46;8.43;;;5.35;;
43048;SDS011;28673;44.412;11.918;2023-06-01T09:05:12;9.68;;;5.43;;
43048;SDS011;28673;44.412;11.918;2023-06-01T09:07:38;5.72;;;3.92;;
43048;SDS011;28673;44.412;11.918;2023-06-01T09:10:05;9.30;;;5.57;;
43048;SDS011;28673;44.412;11.918;2023-06-01T09:12:31;7.97;;;5.30;;
43048;SDS011;28673;44.412;11.918;2023-06-01T09:17:44;10.90;;;5.03;;
43048;SDS011;28673;44.412;11.918;2023-06-01T09:20:22;7.82;;;5.05;;
43048;SDS011;28673;44.412;11.918;2023-06-01T09:22:50;6.60;;;4.53;;
43048;SDS011;28673;44.412;11.918;2023-06-01T09:25:16;8.93;;;4.75;;
43048;SDS011;28673;44.412;11.918;2023-06-01T09:27:45;9.77;;;5.10;;
43048;SDS011;28673;44.412;11.918;2023-06-01T09:30:14;13.98;;;4.85;;
43048;SDS011;28673;44.412;11.918;2023-06-01T09:32:41;6.50;;;4.15;;
43048;SDS011;28673;44.412;11.918;2023-06-01T09:35:08;8.75;;;5.70;;
43048;SDS011;28673;44.412;11.918;2023-06-01T09:37:36;6.20;;;4.35;;
43048;SDS011;28673;44.412;11.918;2023-06-01T09:40:07;6.93;;;4.97;;
43048;SDS011;28673;44.412;11.918;2023-06-01T09:42:42;8.02;;;4.45;;
43048;SDS011;28673;44.412;11.918;2023-06-01T09:45:15;5.43;;;4.28;;
43048;SDS011;28673;44.412;11.918;2023-06-01T09:47:44;6.00;;;4.40;;
43048;SDS011;28673;44.412;11.918;2023-06-01T09:50:10;6.38;;;4.57;;
43048;SDS011;28673;44.412;11.918;2023-06-01T09:52:36;9.23;;;4.45;;
43048;SDS011;28673;44.412;11.918;2023-06-01T09:55:06;9.27;;;4.70;;
43048;SDS011;28673;44.412;11.918;2023-06-01T09:57:33;6.28;;;3.75;;
43048;SDS011;28673;44.412;11.918;2023-06-01T10:00:00;7.45;;;5.20;;
43048;SDS011;28673;44.412;11.918;2023-06-01T10:02:30;7.00;;;5.47;;
43048;SDS011;28673;44.412;11.918;2023-06-01T10:04:58;9.07;;;4.05;;
43048;SDS011;28673;44.412;11.918;2023-06-01T10:07:27;11.73;;;4.97;;
43048;SDS011;28673;44.412;11.918;2023-06-01T10:09:59;9.25;;;3.90;;
43048;SDS011;28673;44.412;11.918;2023-06-01T10:12:27;11.05;;;4.93;;
43048;SDS011;28673;44.412;11.918;2023-06-01T10:14:55;11.18;;;5.38;;
43048;SDS011;28673;44.412;11.918;2023-06-01T10:17:21;7.25;;;4.45;;
43048;SDS011;28673;44.412;11.918;2023-06-01T10:19:47;8.73;;;4.47;;
43048;SDS011;28673;44.412;11.918;2023-06-01T10:22:14;5.57;;;4.40;;
43048;SDS011;28673;44.412;11.918;2023-06-01T10:24:41;4.97;;;3.85;;
43048;SDS011;28673;44.412;11.918;2023-06-01T10:27:15;8.63;;;4.78;;
43048;SDS011;28673;44.412;11.918;2023-06-01T10:40:42;5.25;;;3.72;;
43048;SDS011;28673;44.412;11.918;2023-06-01T10:46:50;5.93;;;4.13;;
43048;SDS011;28673;44.412;11.918;2023-06-01T10:48:57;6.28;;;4.30;;
43048;SDS011;28673;44.412;11.918;2023-06-01T10:51:23;17.80;;;9.85;;
43048;SDS011;28673;44.412;11.918;2023-06-01T10:53:50;17.38;;;13.05;;
43048;SDS011;28673;44.412;11.918;2023-06-01T10:58:46;13.77;;;5.68;;
43048;SDS011;28673;44.412;11.918;2023-06-01T11:01:18;11.23;;;5.15;;
43048;SDS011;28673;44.412;11.918;2023-06-01T11:03:45;6.57;;;4.28;;
43048;SDS011;28673;44.412;11.918;2023-06-01T11:06:30;5.07;;;4.05;;
43048;SDS011;28673;44.412;11.918;2023-06-01T11:09:08;6.68;;;4.43;;
43048;SDS011;28673;44.412;11.918;2023-06-01T11:14:23;6.65;;;3.50;;
43048;SDS011;28673;44.412;11.918;2023-06-01T11:16:55;5.45;;;3.75;;
43048;SDS011;28673;44.412;11.918;2023-06-01T11:19:43;5.78;;;3.83;;
43048;SDS011;28673;44.412;11.918;2023-06-01T11:22:10;6.38;;;4.18;;
43048;SDS011;28673;44.412;11.918;2023-06-01T11:24:37;7.85;;;4.60;;
43048;SDS011;28673;44.412;11.918;2023-06-01T11:27:06;7.07;;;4.00;;
43048;SDS011;28673;44.412;11.918;2023-06-01T11:29:34;7.72;;;3.53;;
43048;SDS011;28673;44.412;11.918;2023-06-01T11:32:01;7.32;;;4.40;;
43048;SDS011;28673;44.412;11.918;2023-06-01T11:37:16;6.78;;;4.63;;
43048;SDS011;28673;44.412;11.918;2023-06-01T11:39:43;9.15;;;4.30;;
43048;SDS011;28673;44.412;11.918;2023-06-01T11:42:12;6.85;;;4.50;;
43048;SDS011;28673;44.412;11.918;2023-06-01T11:44:41;6.25;;;4.22;;
43048;SDS011;28673;44.412;11.918;2023-06-01T11:47:08;6.80;;;3.80;;
43048;SDS011;28673;44.412;11.918;2023-06-01T11:49:42;4.10;;;3.65;;
43048;SDS011;28673;44.412;11.918;2023-06-01T11:52:13;5.15;;;3.45;;
43048;SDS011;28673;44.412;11.918;2023-06-01T11:54:39;6.03;;;3.83;;
43048;SDS011;28673;44.412;11.918;2023-06-01T11:57:05;8.13;;;3.72;;
43048;SDS011;28673;44.412;11.918;2023-06-01T11:59:37;4.43;;;3.33;;
43048;SDS011;28673;44.412;11.918;2023-06-01T12:02:15;6.38;;;4.25;;
43048;SDS011;28673;44.412;11.918;2023-06-01T12:04:53;5.05;;;4.35;;
43048;SDS011;28673;44.412;11.918;2023-06-01T12:07:20;5.10;;;4.35;;
43048;SDS011;28673;44.412;11.918;2023-06-01T12:09:46;4.82;;;3.70;;
43048;SDS011;28673;44.412;11.918;2023-06-01T12:12:12;10.82;;;4.60;;
43048;SDS011;28673;44.412;11.918;2023-06-01T12:14:38;4.55;;;3.63;;
43048;SDS011;28673;44.412;11.918;2023-06-01T12:17:05;7.10;;;4.28;;
43048;SDS011;28673;44.412;11.918;2023-06-01T12:19:31;5.32;;;3.67;;
43048;SDS011;28673;44.412;11.918;2023-06-01T12:21:57;8.95;;;4.80;;
43048;SDS011;28673;44.412;11.918;2023-06-01T12:24:27;5.50;;;4.13;;
43048;SDS011;28673;44.412;11.918;2023-06-01T12:26:58;5.20;;;4.13;;
43048;SDS011;28673;44.412;11.918;2023-06-01T12:32:22;11.52;;;4.40;;
43048;SDS011;28673;44.412;11.918;2023-06-01T12:35:04;8.63;;;4.60;;
43048;SDS011;28673;44.412;11.918;2023-06-01T12:37:33;8.35;;;4.57;;
43048;SDS011;28673;44.412;11.918;2023-06-01T12:39:59;6.75;;;4.30;;
43048;SDS011;28673;44.412;11.918;2023-06-01T12:42:36;6.32;;;4.97;;
43048;SDS011;28673;44.412;11.918;2023-06-01T12:45:04;5.65;;;4.30;;
43048;SDS011;28673;44.412;11.918;2023-06-01T12:47:38;5.40;;;4.13;;
43048;SDS011;28673;44.412;11.918;2023-06-01T12:50:05;6.45;;;4.85;;
43048;SDS011;28673;44.412;11.918;2023-06-01T12:52:33;7.95;;;4.60;;
43048;SDS011;28673;44.412;11.918;2023-06-01T12:54:59;7.88;;;3.72;;
43048;SDS011;28673;44.412;11.918;2023-06-01T12:57:27;5.85;;;4.03;;
43048;SDS011;28673;44.412;11.918;2023-06-01T12:59:53;7.00;;;3.90;;
43048;SDS011;28673;44.412;11.918;2023-06-01T13:02:19;9.93;;;4.80;;
43048;SDS011;28673;44.412;11.918;2023-06-01T13:04:45;12.23;;;4.50;;
43048;SDS011;28673;44.412;11.918;2023-06-01T13:07:11;7.13;;;4.40;;
43048;SDS011;28673;44.412;11.918;2023-06-01T13:09:37;6.15;;;4.32;;
43048;SDS011;28673;44.412;11.918;2023-06-01T13:12:03;8.07;;;4.95;;
43048;SDS011;28673;44.412;11.918;2023-06-01T13:14:30;6.25;;;4.05;;
43048;SDS011;28673;44.412;11.918;2023-06-01T13:16:56;9.35;;;4.63;;
43048;SDS011;28673;44.412;11.918;2023-06-01T13:19:22;4.78;;;4.18;;
43048;SDS011;28673;44.412;11.918;2023-06-01T13:21:50;5.10;;;4.32;;
43048;SDS011;28673;44.412;11.918;2023-06-01T13:24:16;8.27;;;4.45;;
43048;SDS011;28673;44.412;11.918;2023-06-01T13:26:43;6.80;;;4.05;;
43048;SDS011;28673;44.412;11.918;2023-06-01T13:29:09;6.65;;;4.18;;
43048;SDS011;28673;44.412;11.918;2023-06-01T13:31:35;5.70;;;4.82;;
43048;SDS011;28673;44.412;11.918;2023-06-01T13:34:02;10.65;;;5.40;;
43048;SDS011;28673;44.412;11.918;2023-06-01T13:36:29;6.70;;;4.22;;
43048;SDS011;28673;44.412;11.918;2023-06-01T13:38:55;4.60;;;3.58;;
43048;SDS011;28673;44.412;11.918;2023-06-01T13:41:22;5.68;;;4.32;;
43048;SDS011;28673;44.412;11.918;2023-06-01T13:43:48;7.90;;;4.60;;
43048;SDS011;28673;44.412;11.918;2023-06-01T13:46:14;10.45;;;4.63;;
43048;SDS011;28673;44.412;11.918;2023-06-01T13:48:40;5.05;;;4.32;;
43048;SDS011;28673;44.412;11.918;2023-06-01T13:51:06;7.25;;;3.83;;
43048;SDS011;28673;44.412;11.918;2023-06-01T13:53:32;7.38;;;4.32;;
43048;SDS011;28673;44.412;11.918;2023-06-01T13:55:59;6.05;;;3.88;;
43048;SDS011;28673;44.412;11.918;2023-06-01T13:58:25;9.90;;;4.57;;
43048;SDS011;28673;44.412;11.918;2023-06-01T14:00:51;7.45;;;5.13;;
43048;SDS011;28673;44.412;11.918;2023-06-01T14:03:17;9.57;;;4.57;;
43048;SDS011;28673;44.412;11.918;2023-06-01T14:05:42;5.65;;;4.60;;
43048;SDS011;28673;44.412;11.918;2023-06-01T14:08:08;10.55;;;5.75;;
43048;SDS011;28673;44.412;11.918;2023-06-01T14:10:34;4.68;;;4.28;;
43048;SDS011;28673;44.412;11.918;2023-06-01T14:13:01;6.22;;;4.38;;
43048;SDS011;28673;44.412;11.918;2023-06-01T14:15:27;6.28;;;4.18;;
43048;SDS011;28673;44.412;11.918;2023-06-01T14:17:53;4.90;;;4.13;;
43048;SDS011;28673;44.412;11.918;2023-06-01T14:20:19;10.02;;;4.65;;
43048;SDS011;28673;44.412;11.918;2023-06-01T14:22:44;6.45;;;4.18;;
43048;SDS011;28673;44.412;11.918;2023-06-01T14:25:11;5.85;;;4.03;;
43048;SDS011;28673;44.412;11.918;2023-06-01T14:27:38;8.32;;;4.35;;
43048;SDS011;28673;44.412;11.918;2023-06-01T14:30:05;5.63;;;4.15;;
43048;SDS011;28673;44.412;11.918;2023-06-01T14:32:32;7.72;;;4.00;;
43048;SDS011;28673;44.412;11.918;2023-06-01T14:34:57;6.45;;;4.70;;
43048;SDS011;28673;44.412;11.918;2023-06-01T14:37:24;4.13;;;3.72;;
43048;SDS011;28673;44.412;11.918;2023-06-01T14:39:50;7.38;;;4.20;;
43048;SDS011;28673;44.412;11.918;2023-06-01T14:42:16;5.03;;;4.30;;
43048;SDS011;28673;44.412;11.918;2023-06-01T14:44:42;5.90;;;4.28;;
43048;SDS011;28673;44.412;11.918;2023-06-01T14:47:09;9.90;;;5.68;;
43048;SDS011;28673;44.412;11.918;2023-06-01T14:49:39;12.43;;;4.68;;
43048;SDS011;28673;44.412;11.918;2023-06-01T14:52:05;6.20;;;3.97;;
43048;SDS011;28673;44.412;11.918;2023-06-01T14:54:32;6.72;;;4.70;;
43048;SDS011;28673;44.412;11.918;2023-06-01T14:56:58;5.07;;;4.30;;
43048;SDS011;28673;44.412;11.918;2023-06-01T14:59:25;5.13;;;4.43;;
43048;SDS011;28673;44.412;11.918;2023-06-01T15:01:51;9.18;;;4.47;;
43048;SDS011;28673;44.412;11.918;2023-06-01T15:04:17;5.18;;;4.47;;
43048;SDS011;28673;44.412;11.918;2023-06-01T15:06:43;10.45;;;4.07;;
43048;SDS011;28673;44.412;11.918;2023-06-01T15:09:09;6.35;;;4.13;;
43048;SDS011;28673;44.412;11.918;2023-06-01T15:11:34;4.68;;;3.75;;
43048;SDS011;28673;44.412;11.918;2023-06-01T15:14:00;4.82;;;3.70;;
43048;SDS011;28673;44.412;11.918;2023-06-01T15:16:26;7.38;;;4.13;;
43048;SDS011;28673;44.412;11.918;2023-06-01T15:18:53;5.97;;;4.07;;
43048;SDS011;28673;44.412;11.918;2023-06-01T15:21:18;6.05;;;4.10;;
43048;SDS011;28673;44.412;11.918;2023-06-01T15:23:44;5.65;;;4.38;;